Time;durP1;ratioP1;P1;durP2;ratioP2;P2;SDS_P1;SDS_P2;PMS_P1;PMS_P2;Temp;Humidity;BMP_temperature;BMP_pressure;BME280_temperature;BME280_humidity;BME280_pressure;Samples;Min_cycle;Max_cycle;Signal;HPM_P1;HPM_P2
2023/09/05 00:01:01;;;;;;;11.15;10.85;;;16.70;99.90;;;;;;5097270;28;20241;-85
2023/09/05 00:03:40;;;;;;;10.52;10.23;;;16.70;99.90;;;;;;5084693;28;20233;-84
2023/09/05 00:09:34;;;;;;;10.70;10.40;;;16.70;99.90;;;;;;5102802;28;20220;-85
2023/09/05 00:15:02;;;;;;;10.60;10.30;;;16.60;99.90;;;;;;5087631;28;20229;-85
2023/09/05 00:20:22;;;;;;;11.20;10.90;;;16.50;99.90;;;;;;5099851;28;20748;-84
2023/09/05 00:22:58;;;;;;;11.20;10.90;;;16.40;99.90;;;;;;5083622;28;20226;-84
2023/09/05 00:25:39;;;;;;;11.25;10.95;;;16.30;99.90;;;;;;5093739;28;20233;-85
2023/09/05 00:28:08;;;;;;;11.07;10.77;;;16.20;99.90;;;;;;5087693;28;20230;-85
2023/09/05 00:30:47;;;;;;;11.05;10.75;;;16.20;99.90;;;;;;5095126;28;20409;-84
2023/09/05 00:33:30;;;;;;;11.20;10.90;;;16.20;99.90;;;;;;5095054;28;20245;-84
2023/09/05 00:36:05;;;;;;;11.15;10.85;;;16.10;99.90;;;;;;5094346;28;20229;-84
2023/09/05 00:39:02;;;;;;;11.30;10.90;;;16.10;99.90;;;;;;5089280;28;20230;-85
2023/09/05 00:44:31;;;;;;;11.30;11.00;;;15.90;99.90;;;;;;5144478;27;1381581;-86
2023/09/05 00:47:00;;;;;;;11.30;11.00;;;15.90;99.90;;;;;;5163406;27;20225;-86
2023/09/05 00:58:03;;;;;;;10.80;10.50;;;15.90;99.90;;;;;;5149093;27;20231;-85
2023/09/05 01:03:18;;;;;;;10.70;10.40;;;15.80;99.90;;;;;;5143003;27;20224;-85
2023/09/05 01:05:56;;;;;;;10.90;10.60;;;15.80;99.90;;;;;;5148049;27;20223;-85
2023/09/05 01:08:52;;;;;;;11.00;10.70;;;15.80;99.90;;;;;;5144293;27;20219;-85
2023/09/05 01:11:23;;;;;;;11.05;10.75;;;15.70;99.90;;;;;;5149764;27;20234;-85
2023/09/05 01:13:53;;;;;;;11.00;10.70;;;15.60;99.90;;;;;;5155082;27;20227;-85
2023/09/05 01:16:20;;;;;;;11.00;10.70;;;15.60;99.90;;;;;;5161433;27;20227;-85
2023/09/05 01:19:01;;;;;;;10.70;10.40;;;15.60;99.90;;;;;;5141511;27;20244;-85
2023/09/05 01:21:39;;;;;;;10.70;10.40;;;15.60;99.90;;;;;;5154385;27;20215;-86
2023/09/05 01:27:02;;;;;;;10.70;10.40;;;15.60;99.90;;;;;;5169654;27;20220;-85
2023/09/05 01:29:49;;;;;;;10.57;10.27;;;15.60;99.90;;;;;;5159567;27;20238;-85
2023/09/05 01:32:20;;;;;;;10.60;10.30;;;15.50;99.90;;;;;;5160796;27;20231;-85
2023/09/05 01:34:48;;;;;;;10.68;10.38;;;15.50;99.90;;;;;;5164777;27;20235;-84
2023/09/05 01:37:20;;;;;;;10.70;10.40;;;15.40;99.90;;;;;;5166142;27;20213;-85
2023/09/05 01:39:49;;;;;;;10.55;10.25;;;15.30;99.90;;;;;;5170638;27;20215;-84
2023/09/05 01:42:17;;;;;;;10.45;10.15;;;15.20;99.90;;;;;;5168534;27;20212;-84
2023/09/05 01:44:45;;;;;;;10.77;10.48;;;15.10;99.90;;;;;;5170540;27;20234;-83
2023/09/05 01:47:25;;;;;;;10.93;10.63;;;15.10;99.90;;;;;;5169485;27;20223;-84
2023/09/05 01:49:54;;;;;;;10.45;10.15;;;15.10;99.90;;;;;;5149327;27;20339;-85
2023/09/05 01:52:23;;;;;;;10.60;10.30;;;15.10;99.90;;;;;;5164894;27;20220;-85
2023/09/05 01:55:10;;;;;;;10.52;10.23;;;15.10;99.90;;;;;;5152596;27;20236;-84
2023/09/05 01:57:49;;;;;;;10.38;10.07;;;15.10;99.90;;;;;;5163591;27;20225;-85
2023/09/05 02:00:17;;;;;;;10.52;10.23;;;15.10;99.90;;;;;;5145839;27;20234;-84
2023/09/05 02:02:57;;;;;;;10.50;10.20;;;15.10;99.90;;;;;;5144683;27;20240;-85
2023/09/05 02:05:25;;;;;;;10.50;10.20;;;15.10;99.90;;;;;;5149807;27;20287;-85
2023/09/05 02:08:04;;;;;;;10.73;10.43;;;15.10;99.90;;;;;;5150971;27;20232;-85
2023/09/05 02:10:35;;;;;;;10.75;10.45;;;15.20;99.90;;;;;;5141129;27;20220;-84
2023/09/05 02:13:02;;;;;;;10.60;10.30;;;15.10;99.90;;;;;;5134681;27;20255;-85
2023/09/05 02:15:41;;;;;;;10.60;10.30;;;15.10;99.90;;;;;;5142976;27;20235;-85
2023/09/05 02:18:11;;;;;;;10.50;10.20;;;15.00;99.90;;;;;;5153541;27;20227;-84
2023/09/05 02:20:39;;;;;;;10.05;9.75;;;15.00;99.90;;;;;;5135813;27;20283;-85
2023/09/05 02:23:10;;;;;;;10.35;10.05;;;15.00;99.90;;;;;;5151150;27;20220;-85
2023/09/05 02:28:25;;;;;;;10.20;9.90;;;15.00;99.90;;;;;;5147745;27;20224;-85
2023/09/05 02:30:55;;;;;;;10.32;10.02;;;15.00;99.90;;;;;;5143716;27;20228;-85
2023/09/05 02:33:24;;;;;;;10.05;9.75;;;15.00;99.90;;;;;;5127891;28;20247;-84
2023/09/05 02:36:04;;;;;;;10.18;9.88;;;15.00;99.90;;;;;;5141627;27;20239;-85
2023/09/05 02:38:32;;;;;;;10.13;9.82;;;15.00;99.90;;;;;;5128897;27;20319;-85
2023/09/05 02:43:48;;;;;;;10.02;9.73;;;15.00;99.90;;;;;;5140843;27;20227;-85
2023/09/05 02:46:28;;;;;;;10.10;9.80;;;14.90;99.90;;;;;;5131357;27;20229;-85
2023/09/05 02:49:07;;;;;;;10.00;9.70;;;14.90;99.90;;;;;;5141923;27;20257;-85
2023/09/05 02:51:36;;;;;;;9.82;9.52;;;14.90;99.90;;;;;;5141640;27;20244;-84
2023/09/05 02:54:15;;;;;;;10.18;9.88;;;14.80;99.90;;;;;;5127880;27;20227;-85
2023/09/05 02:56:46;;;;;;;10.30;10.00;;;14.80;99.90;;;;;;5138852;27;20285;-85
2023/09/05 02:59:14;;;;;;;10.13;9.82;;;14.80;99.90;;;;;;5147077;27;20239;-85
2023/09/05 03:01:42;;;;;;;10.07;9.77;;;14.80;99.90;;;;;;5145200;27;20244;-85
2023/09/05 03:04:22;;;;;;;9.90;9.60;;;14.70;99.90;;;;;;5128325;27;20260;-85
2023/09/05 03:06:50;;;;;;;10.27;9.98;;;14.70;99.90;;;;;;5132176;27;20232;-84
2023/09/05 03:09:30;;;;;;;10.20;9.90;;;14.70;99.90;;;;;;5138707;27;20278;-85
2023/09/05 03:12:00;;;;;;;10.13;9.82;;;14.70;99.90;;;;;;5138311;27;20247;-85
2023/09/05 03:14:27;;;;;;;10.20;9.90;;;14.70;99.90;;;;;;5135625;27;20982;-85
2023/09/05 03:17:09;;;;;;;10.10;9.80;;;14.70;99.90;;;;;;5141566;27;20235;-85
2023/09/05 03:19:37;;;;;;;10.13;9.82;;;14.70;99.90;;;;;;5140033;27;20235;-85
2023/09/05 03:22:07;;;;;;;10.15;9.85;;;14.70;99.90;;;;;;5148175;27;20224;-85
2023/09/05 03:30:27;;;;;;;10.00;9.70;;;14.70;99.90;;;;;;5142089;27;20232;-84
2023/09/05 03:33:04;;;;;;;9.93;9.63;;;14.70;99.90;;;;;;5144915;27;20240;-84
2023/09/05 03:35:42;;;;;;;9.70;9.40;;;14.80;99.90;;;;;;5143395;27;20208;-82
2023/09/05 03:38:13;;;;;;;9.80;9.50;;;14.80;99.90;;;;;;5148923;27;20216;-84
2023/09/05 03:40:41;;;;;;;9.73;9.43;;;14.90;99.90;;;;;;5161492;27;20212;-86
2023/09/05 03:43:13;;;;;;;9.55;9.25;;;14.90;99.90;;;;;;5161560;27;20224;-85
2023/09/05 03:45:40;;;;;;;9.45;9.15;;;14.90;99.90;;;;;;5140821;27;20259;-86
2023/09/05 03:48:09;;;;;;;9.55;9.25;;;14.90;99.90;;;;;;5140786;27;20217;-85
2023/09/05 03:50:48;;;;;;;9.80;9.50;;;15.00;99.90;;;;;;5152722;27;20241;-86
2023/09/05 03:53:17;;;;;;;9.85;9.55;;;15.00;99.90;;;;;;5152434;27;20232;-85
2023/09/05 03:55:56;;;;;;;9.88;9.57;;;15.00;99.90;;;;;;5152876;27;20316;-85
2023/09/05 03:58:27;;;;;;;10.00;9.70;;;15.00;99.90;;;;;;5147884;27;20227;-85
2023/09/05 04:00:58;;;;;;;9.60;9.30;;;15.10;99.90;;;;;;5128402;27;20225;-85
2023/09/05 04:03:26;;;;;;;9.88;9.57;;;15.10;99.90;;;;;;5129286;27;20239;-85
2023/09/05 04:05:53;;;;;;;9.48;9.18;;;15.10;99.90;;;;;;5139663;27;20235;-86
2023/09/05 04:08:22;;;;;;;9.63;9.32;;;15.10;99.90;;;;;;5146179;27;20221;-85
2023/09/05 04:13:32;;;;;;;9.80;9.50;;;15.10;99.90;;;;;;5120127;22;20233;-85
2023/09/05 04:18:46;;;;;;;9.90;9.60;;;15.10;99.90;;;;;;5105509;28;20244;-85
2023/09/05 04:21:15;;;;;;;10.00;9.70;;;15.10;99.90;;;;;;5113929;28;20235;-86
2023/09/05 04:23:45;;;;;;;10.20;9.90;;;15.00;99.90;;;;;;5125775;28;20228;-86
2023/09/05 04:26:25;;;;;;;10.40;10.10;;;15.10;99.90;;;;;;5124934;27;20221;-85
2023/09/05 04:28:55;;;;;;;10.60;10.30;;;15.00;99.90;;;;;;5112924;28;20263;-85
2023/09/05 04:31:23;;;;;;;10.68;10.38;;;15.00;99.90;;;;;;5118266;28;20849;-85
2023/09/05 04:33:55;;;;;;;10.35;10.05;;;15.00;99.90;;;;;;5121187;28;20214;-86
2023/09/05 04:36:23;;;;;;;10.60;10.30;;;15.00;99.90;;;;;;5121191;28;20209;-86
2023/09/05 04:38:51;;;;;;;10.32;10.02;;;15.00;99.90;;;;;;5121550;28;20230;-86
2023/09/05 04:41:21;;;;;;;10.10;9.80;;;15.00;99.90;;;;;;5120927;28;20233;-85
2023/09/05 04:43:51;;;;;;;10.40;10.10;;;15.00;99.90;;;;;;5120578;28;20217;-86
2023/09/05 04:46:22;;;;;;;10.05;9.75;;;15.00;99.90;;;;;;5109920;28;20218;-85
2023/09/05 04:48:50;;;;;;;9.88;9.57;;;15.00;99.90;;;;;;5108758;28;20251;-86
2023/09/05 04:51:29;;;;;;;9.80;9.50;;;15.00;99.90;;;;;;5106848;28;20260;-86
2023/09/05 04:56:46;;;;;;;9.88;9.57;;;15.00;99.90;;;;;;5087358;28;20230;-85
2023/09/05 04:59:14;;;;;;;9.80;9.50;;;15.00;99.90;;;;;;5121473;28;20233;-85
2023/09/05 06:29:40;;;;;;;11.00;10.70;;;17.20;99.90;;;;;;5074176;28;20236;-80
2023/09/05 06:35:13;;;;;;;10.90;10.60;;;17.40;99.90;;;;;;5033117;28;20232;-85
2023/09/05 06:37:41;;;;;;;10.93;10.63;;;17.50;99.90;;;;;;5045380;28;20215;-84
2023/09/05 06:40:14;;;;;;;10.85;10.55;;;17.60;99.90;;;;;;5046566;28;20251;-85
2023/09/05 07:03:38;;;;;;;11.38;10.98;;;18.10;99.90;;;;;;4961967;28;20385;-87
2023/09/05 07:11:08;;;;;;;;;;;;;;;;;;;;;
2023/09/05 07:13:40;;;;;;;11.20;10.80;;;18.30;99.90;;;;;;5022307;28;20237;-84
2023/09/05 07:27:34;;;;;;;11.38;10.98;;;18.60;99.90;;;;;;4982264;28;20236;-84
2023/09/05 07:31:36;;;;;;;11.55;11.15;;;18.70;99.90;;;;;;5018900;28;20252;-83
2023/09/05 08:23:35;;;;;;;11.02;10.73;;;20.70;99.90;;;;;;5952653;24;20222;-91
2023/09/05 08:26:16;;;;;;;11.35;11.00;;;20.70;99.90;;;;;;5986466;23;20205;-83
2023/09/05 08:28:45;;;;;;;11.45;11.05;;;20.70;99.90;;;;;;6164671;22;20200;-82
2023/09/05 08:31:13;;;;;;;10.90;10.60;;;20.90;99.90;;;;;;6269249;22;20192;-83
2023/09/05 08:34:20;;;;;;;11.00;10.70;;;21.00;99.90;;;;;;6359779;22;20202;-82
2023/09/05 08:40:10;;;;;;;10.77;10.48;;;21.20;99.90;;;;;;6395677;22;20205;-83
2023/09/05 08:42:47;;;;;;;10.68;10.38;;;21.30;99.90;;;;;;6398780;22;20195;-82
2023/09/05 08:45:35;;;;;;;10.50;10.20;;;21.60;99.90;;;;;;6398112;22;20210;-85
2023/09/05 08:48:04;;;;;;;10.60;10.30;;;21.80;99.90;;;;;;6398735;22;20191;-86
2023/09/05 09:43:48;;;;;;;10.43;10.13;;;23.80;99.90;;;;;;6232229;23;20242;-83
2023/09/05 09:46:26;;;;;;;10.75;10.45;;;24.00;99.90;;;;;;6243396;23;20190;-83
2023/09/05 09:49:21;;;;;;;10.73;10.43;;;24.20;99.90;;;;;;6301266;22;20200;-83
2023/09/05 09:57:33;;;;;;;10.90;10.60;;;24.70;99.90;;;;;;6326443;22;20212;-81
2023/09/05 10:02:58;;;;;;;11.05;10.75;;;24.90;99.90;;;;;;6324803;22;20288;-86
2023/09/05 10:05:26;;;;;;;11.48;11.10;;;25.10;99.90;;;;;;6326370;22;20411;-84
2023/09/05 10:07:57;;;;;;;11.50;11.10;;;25.40;99.90;;;;;;6337422;22;20204;-84
2023/09/05 10:10:25;;;;;;;11.02;10.73;;;25.60;99.90;;;;;;6327386;22;20193;-85
2023/09/05 10:12:56;;;;;;;10.80;10.50;;;25.70;99.90;;;;;;6328586;22;20196;-85
2023/09/05 10:18:30;;;;;;;11.10;10.80;;;25.50;99.90;;;;;;6325681;22;20187;-85
2023/09/05 10:21:00;;;;;;;10.85;10.55;;;25.50;99.90;;;;;;6329022;22;20193;-83
2023/09/05 10:26:15;;;;;;;10.75;10.45;;;25.70;99.90;;;;;;6328289;22;20192;-83
2023/09/05 10:28:44;;;;;;;10.98;10.68;;;25.80;99.90;;;;;;6330221;22;20219;-82
2023/09/05 10:34:02;;;;;;;11.40;11.10;;;26.00;99.90;;;;;;6338430;22;20200;-83
2023/09/05 10:39:27;;;;;;;11.18;10.88;;;26.40;99.90;;;;;;6328768;22;20252;-83
2023/09/05 10:42:13;;;;;;;11.52;11.13;;;26.40;99.90;;;;;;6329935;22;20219;-83
2023/09/05 10:44:43;;;;;;;11.68;11.27;;;26.50;99.90;;;;;;6332368;22;20193;-85
2023/09/05 10:47:53;;;;;;;11.70;11.30;;;26.90;99.90;;;;;;6342178;22;20196;-85
2023/09/05 10:53:23;;;;;;;11.25;10.95;;;27.40;99.90;;;;;;6327393;22;20193;-85
2023/09/05 10:55:54;;;;;;;11.30;11.00;;;27.30;99.90;;;;;;6328691;22;20272;-85
2023/09/05 10:58:56;;;;;;;11.57;11.18;;;27.20;99.90;;;;;;6329325;22;20220;-85
2023/09/05 11:01:45;;;;;;;11.40;11.00;;;27.60;99.90;;;;;;6335763;22;20192;-86
2023/09/05 11:04:34;;;;;;;11.50;11.10;;;27.60;99.90;;;;;;6326126;22;20292;-81
2023/09/05 11:07:08;;;;;;;11.38;11.00;;;27.30;99.90;;;;;;6323605;22;20205;-80
2023/09/05 11:09:48;;;;;;;11.15;10.85;;;27.00;99.90;;;;;;6325336;22;20204;-82
2023/09/05 11:12:15;;;;;;;11.27;10.90;;;26.90;99.90;;;;;;6326305;22;20247;-85
2023/09/05 11:14:54;;;;;;;11.18;10.88;;;26.90;99.90;;;;;;6327141;22;20208;-83
2023/09/05 11:17:24;;;;;;;11.10;10.70;;;27.00;99.90;;;;;;6324429;22;20197;-83
2023/09/05 11:19:55;;;;;;;11.10;10.80;;;27.00;99.90;;;;;;6329046;22;20267;-84
2023/09/05 11:22:25;;;;;;;11.38;11.00;;;27.30;99.90;;;;;;6325753;22;20185;-85
2023/09/05 11:27:41;;;;;;;11.55;11.15;;;27.30;99.90;;;;;;6330291;22;20205;-84
2023/09/05 11:30:16;;;;;;;11.18;10.85;;;27.30;99.90;;;;;;6330269;22;20193;-85
2023/09/05 11:32:49;;;;;;;11.55;11.15;;;27.80;99.90;;;;;;6327182;22;20230;-83
2023/09/05 11:35:19;;;;;;;11.13;10.82;;;28.20;99.90;;;;;;6326312;22;20228;-83
2023/09/05 11:37:46;;;;;;;10.93;10.63;;;28.40;99.90;;;;;;6326945;22;20203;-83
2023/09/05 11:40:20;;;;;;;11.30;11.00;;;28.70;99.90;;;;;;6327337;22;20196;-83
2023/09/05 11:42:47;;;;;;;11.30;11.00;;;29.20;99.90;;;;;;6327158;22;20248;-83
2023/09/05 11:45:20;;;;;;;11.25;10.95;;;29.60;99.90;;;;;;6326480;22;20197;-83
2023/09/05 11:50:34;;;;;;;10.98;10.68;;;30.10;99.90;;;;;;6326021;22;20220;-84
2023/09/05 11:53:04;;;;;;;11.10;10.80;;;30.30;99.90;;;;;;6324557;22;20192;-82
2023/09/05 11:55:31;;;;;;;11.50;11.10;;;30.30;99.90;;;;;;6323674;22;20201;-82
2023/09/05 11:58:00;;;;;;;11.40;11.00;;;29.80;99.90;;;;;;6324004;22;20243;-82
2023/09/05 12:00:28;;;;;;;11.02;10.73;;;29.40;99.90;;;;;;6323609;22;20193;-82
2023/09/05 12:02:59;;;;;;;10.77;10.48;;;29.10;99.90;;;;;;6323314;22;20193;-83
2023/09/05 12:05:28;;;;;;;11.00;10.70;;;28.90;99.90;;;;;;6323114;22;20223;-83
2023/09/05 12:07:59;;;;;;;10.77;10.48;;;29.10;99.90;;;;;;6322964;22;20207;-81
2023/09/05 12:10:26;;;;;;;10.63;10.32;;;29.20;99.90;;;;;;6322870;22;20189;-82
2023/09/05 12:12:56;;;;;;;10.90;10.60;;;29.20;99.90;;;;;;6322893;22;20220;-83
2023/09/05 12:15:35;;;;;;;11.10;10.80;;;29.40;99.90;;;;;;6322872;22;20227;-83
2023/09/05 12:18:05;;;;;;;10.82;10.52;;;29.40;99.90;;;;;;6323090;22;20204;-83
2023/09/05 12:20:33;;;;;;;11.13;10.82;;;29.30;99.90;;;;;;6326210;22;20244;-82
2023/09/05 12:23:05;;;;;;;11.20;10.90;;;29.20;99.90;;;;;;6322728;22;20217;-82
2023/09/05 12:25:32;;;;;;;10.90;10.60;;;29.40;99.90;;;;;;6226391;22;20213;-81
2023/09/05 12:28:15;;;;;;;11.18;10.88;;;29.60;99.90;;;;;;6261845;22;20246;-81
2023/09/05 12:30:43;;;;;;;11.00;10.70;;;29.70;99.90;;;;;;6262483;22;20198;-82
2023/09/05 12:33:10;;;;;;;10.90;10.60;;;29.80;99.90;;;;;;6266217;22;20202;-82
2023/09/05 12:35:38;;;;;;;11.05;10.75;;;30.00;99.90;;;;;;6264424;22;20190;-82
2023/09/05 12:38:09;;;;;;;10.73;10.43;;;30.20;99.90;;;;;;6261823;22;20199;-81
2023/09/05 12:40:37;;;;;;;10.82;10.52;;;30.30;99.90;;;;;;6263414;22;20213;-82
2023/09/05 12:43:05;;;;;;;10.95;10.65;;;30.70;99.90;;;;;;6275019;22;20253;-79
2023/09/05 12:45:34;;;;;;;10.90;10.60;;;31.10;99.90;;;;;;6264356;22;20214;-79
2023/09/05 12:48:01;;;;;;;10.75;10.45;;;30.90;99.90;;;;;;6262943;22;20609;-80
2023/09/05 12:50:29;;;;;;;10.50;10.20;;;30.70;99.90;;;;;;6265603;22;20221;-80
2023/09/05 12:52:58;;;;;;;10.43;10.13;;;31.00;99.90;;;;;;6277242;22;20194;-80
2023/09/05 12:55:27;;;;;;;10.40;10.10;;;31.50;99.90;;;;;;6267238;22;20202;-80
2023/09/05 12:57:54;;;;;;;10.80;10.50;;;31.80;99.90;;;;;;6261942;22;20204;-78
2023/09/05 13:00:22;;;;;;;10.90;10.60;;;31.40;99.90;;;;;;6259485;22;20208;-79
2023/09/05 13:02:49;;;;;;;10.60;10.30;;;31.00;99.90;;;;;;6261744;22;20217;-79
2023/09/05 13:05:16;;;;;;;10.30;10.00;;;30.70;99.90;;;;;;6264540;22;20212;-82
2023/09/05 13:07:44;;;;;;;10.52;10.23;;;30.70;99.90;;;;;;6260900;22;20209;-79
2023/09/05 13:10:12;;;;;;;10.80;10.50;;;30.90;99.90;;;;;;6262819;22;20202;-80
2023/09/05 13:12:40;;;;;;;10.65;10.35;;;30.80;99.90;;;;;;6263153;22;20198;-80
2023/09/05 13:15:09;;;;;;;10.88;10.57;;;31.10;99.90;;;;;;6261826;22;20210;-80
2023/09/05 13:17:37;;;;;;;10.90;10.60;;;31.70;99.90;;;;;;6262278;22;20198;-79
2023/09/05 13:20:06;;;;;;;10.88;10.57;;;32.10;99.90;;;;;;6260063;22;20201;-79
2023/09/05 13:22:33;;;;;;;11.10;10.80;;;32.30;99.90;;;;;;6265292;22;20202;-79
2023/09/05 13:25:00;;;;;;;10.98;10.68;;;31.90;99.90;;;;;;6265260;22;21043;-80
2023/09/05 13:27:27;;;;;;;10.70;10.40;;;31.40;99.90;;;;;;6264521;22;20198;-80
2023/09/05 13:29:56;;;;;;;10.90;10.60;;;31.30;99.90;;;;;;6261434;22;20195;-80
2023/09/05 13:32:23;;;;;;;10.82;10.52;;;31.20;99.90;;;;;;6260587;22;20198;-80
2023/09/05 13:34:51;;;;;;;10.82;10.52;;;31.50;99.90;;;;;;6260430;22;20202;-80
2023/09/05 13:37:19;;;;;;;11.10;10.80;;;31.70;99.90;;;;;;6259909;22;20234;-79
2023/09/05 13:39:47;;;;;;;11.00;10.70;;;31.60;99.90;;;;;;6260220;22;20202;-80
2023/09/05 13:42:15;;;;;;;10.88;10.57;;;31.50;99.90;;;;;;6260731;22;20202;-80
2023/09/05 13:44:42;;;;;;;11.30;11.00;;;31.30;99.90;;;;;;6260434;22;20311;-80
2023/09/05 13:47:11;;;;;;;11.30;11.00;;;31.20;99.90;;;;;;6261178;22;20207;-80
2023/09/05 13:49:39;;;;;;;11.23;10.93;;;31.00;99.90;;;;;;6261018;22;20212;-80
2023/09/05 13:52:09;;;;;;;11.20;10.90;;;30.80;99.90;;;;;;6261419;22;20198;-81
2023/09/05 13:54:39;;;;;;;10.98;10.68;;;30.80;99.90;;;;;;6261013;22;20202;-83
2023/09/05 13:57:18;;;;;;;11.40;11.10;;;31.20;99.90;;;;;;6260533;22;20410;-82
2023/09/05 13:59:47;;;;;;;11.07;10.77;;;31.60;99.90;;;;;;6261159;22;20241;-82
2023/09/05 14:05:04;;;;;;;10.98;10.68;;;31.20;99.90;;;;;;6260958;22;20208;-82
2023/09/05 14:07:32;;;;;;;11.00;10.70;;;30.90;99.90;;;;;;6261163;22;20213;-83
2023/09/05 14:10:01;;;;;;;10.70;10.40;;;30.50;99.90;;;;;;6261615;22;20641;-82
2023/09/05 14:12:29;;;;;;;10.90;10.60;;;30.40;99.90;;;;;;6261937;22;20194;-82
2023/09/05 14:15:01;;;;;;;10.75;10.45;;;30.60;99.90;;;;;;6264200;22;20197;-82
2023/09/05 14:17:32;;;;;;;10.60;10.30;;;30.80;99.90;;;;;;6271611;22;20202;-82
2023/09/05 14:19:59;;;;;;;10.40;10.10;;;30.70;99.90;;;;;;6271359;22;20173;-82
2023/09/05 14:22:27;;;;;;;10.65;10.35;;;30.70;99.90;;;;;;6261625;22;20202;-82
2023/09/05 14:24:55;;;;;;;10.82;10.52;;;30.50;99.90;;;;;;6263231;22;20205;-80
2023/09/05 14:27:23;;;;;;;11.05;10.75;;;30.50;99.90;;;;;;6261284;22;20209;-81
2023/09/05 14:29:50;;;;;;;11.10;10.80;;;30.20;99.90;;;;;;6262293;22;20219;-80
2023/09/05 14:32:17;;;;;;;11.10;10.80;;;30.00;99.90;;;;;;6261114;22;20249;-80
2023/09/05 14:34:47;;;;;;;10.80;10.50;;;30.00;99.90;;;;;;6261694;22;20194;-80
2023/09/05 14:37:16;;;;;;;10.98;10.68;;;30.00;99.90;;;;;;6261627;22;20205;-81
2023/09/05 14:39:44;;;;;;;10.98;10.68;;;30.20;99.90;;;;;;6260763;22;20204;-81
2023/09/05 14:42:13;;;;;;;10.85;10.55;;;30.40;99.90;;;;;;6259723;22;20210;-80
2023/09/05 14:44:41;;;;;;;10.63;10.32;;;30.50;99.90;;;;;;6269716;22;20203;-80
2023/09/05 14:47:09;;;;;;;10.90;10.60;;;30.50;99.90;;;;;;6260634;22;20280;-81
2023/09/05 14:49:36;;;;;;;10.70;10.40;;;30.50;99.90;;;;;;6261369;22;20209;-81
2023/09/05 14:52:06;;;;;;;10.70;10.40;;;30.50;99.90;;;;;;6261852;22;20190;-82
2023/09/05 14:54:34;;;;;;;10.75;10.45;;;30.70;99.90;;;;;;6263106;22;20277;-82
2023/09/05 14:57:03;;;;;;;10.85;10.55;;;31.10;99.90;;;;;;6262988;22;20300;-82
2023/09/05 14:59:34;;;;;;;11.00;10.70;;;31.40;99.90;;;;;;6262222;22;20226;-83
2023/09/05 15:02:02;;;;;;;10.98;10.68;;;31.60;99.90;;;;;;6262342;22;20263;-82
2023/09/05 15:04:29;;;;;;;10.95;10.65;;;31.70;99.90;;;;;;6260285;22;20202;-83
2023/09/05 15:07:03;;;;;;;10.75;10.45;;;31.80;99.90;;;;;;6260723;22;20230;-83
2023/09/05 15:09:32;;;;;;;10.70;10.40;;;31.90;99.90;;;;;;6260419;22;20272;-82
2023/09/05 15:12:00;;;;;;;10.60;10.30;;;32.00;99.90;;;;;;6261370;22;20194;-82
2023/09/05 15:14:39;;;;;;;10.38;10.07;;;32.10;99.90;;;;;;6259759;22;20198;-82
2023/09/05 15:17:08;;;;;;;10.70;10.40;;;32.40;99.90;;;;;;6260922;22;20187;-83
2023/09/05 15:19:37;;;;;;;10.82;10.52;;;32.80;99.90;;;;;;6260835;22;20190;-87
2023/09/05 15:22:06;;;;;;;10.82;10.52;;;33.20;99.90;;;;;;6262184;22;20190;-84
2023/09/05 15:24:57;;;;;;;10.82;10.52;;;33.50;99.90;;;;;;6261306;22;20260;-87
2023/09/05 15:27:24;;;;;;;10.85;10.55;;;33.80;99.90;;;;;;6261936;22;20190;-87
2023/09/05 15:29:53;;;;;;;11.13;10.82;;;33.90;99.90;;;;;;6260732;22;20221;-88
2023/09/05 15:32:20;;;;;;;10.90;10.60;;;34.30;99.90;;;;;;6260568;22;20233;-85
2023/09/05 15:34:47;;;;;;;10.70;10.40;;;34.20;99.90;;;;;;6261103;22;20202;-84
2023/09/05 15:37:17;;;;;;;10.63;10.32;;;33.90;99.90;;;;;;6264793;22;20190;-85
2023/09/05 15:39:44;;;;;;;10.57;10.27;;;33.60;99.90;;;;;;6263363;22;20194;-85
2023/09/05 15:42:15;;;;;;;10.70;10.40;;;33.60;99.90;;;;;;6261898;22;20228;-86
2023/09/05 15:44:44;;;;;;;10.45;10.15;;;33.70;99.90;;;;;;6261270;22;20239;-85
2023/09/05 15:47:12;;;;;;;10.70;10.40;;;34.00;99.90;;;;;;6261969;22;20212;-85
2023/09/05 15:49:57;;;;;;;10.90;10.60;;;34.30;99.90;;;;;;6264073;22;20209;-85
2023/09/05 15:55:09;;;;;;;10.70;10.40;;;34.70;99.90;;;;;;6260632;22;20203;-86
2023/09/05 15:57:39;;;;;;;10.90;10.60;;;34.60;99.90;;;;;;6263370;22;20206;-85
2023/09/05 16:00:11;;;;;;;10.57;10.27;;;34.30;99.90;;;;;;6263472;22;20224;-85
2023/09/05 16:05:31;;;;;;;10.55;10.25;;;33.70;99.90;;;;;;6261665;22;20201;-85
2023/09/05 16:08:00;;;;;;;10.60;10.30;;;33.40;99.90;;;;;;6260962;22;20260;-86
2023/09/05 16:10:39;;;;;;;10.50;10.20;;;33.40;99.90;;;;;;6260985;22;20208;-86
2023/09/05 16:13:10;;;;;;;10.27;9.98;;;33.30;99.90;;;;;;6261093;22;20186;-86
2023/09/05 16:15:37;;;;;;;10.60;10.30;;;33.00;99.90;;;;;;6260769;22;20202;-86
2023/09/05 16:18:06;;;;;;;11.00;10.70;;;32.80;99.90;;;;;;6261685;22;20194;-86
2023/09/05 16:20:45;;;;;;;10.90;10.60;;;32.80;99.90;;;;;;6262589;22;20225;-86
2023/09/05 16:25:52;;;;;;;10.60;10.30;;;32.90;99.90;;;;;;6323894;22;20196;-86
2023/09/05 16:28:26;;;;;;;10.70;10.40;;;32.70;99.90;;;;;;6324460;22;20231;-85
2023/09/05 16:30:55;;;;;;;11.00;10.70;;;32.60;99.90;;;;;;6324751;22;20248;-85
2023/09/05 16:33:22;;;;;;;10.80;10.50;;;32.40;99.90;;;;;;6323284;22;20253;-85
2023/09/05 16:35:59;;;;;;;10.82;10.52;;;32.30;99.90;;;;;;6301963;22;20197;-86
2023/09/05 16:38:28;;;;;;;10.80;10.50;;;32.40;99.90;;;;;;6292314;22;20181;-86
2023/09/05 16:40:59;;;;;;;10.90;10.60;;;32.60;99.90;;;;;;6292605;22;20201;-85
2023/09/05 16:43:29;;;;;;;10.90;10.60;;;32.60;99.90;;;;;;6292266;22;20198;-85
2023/09/05 16:45:57;;;;;;;10.63;10.32;;;32.50;99.90;;;;;;6292682;22;20194;-85
2023/09/05 16:48:28;;;;;;;10.60;10.30;;;32.40;99.90;;;;;;6292722;22;20252;-84
2023/09/05 16:50:55;;;;;;;10.40;10.10;;;32.40;99.90;;;;;;6292270;22;20186;-85
2023/09/05 16:53:25;;;;;;;10.45;10.15;;;32.30;99.90;;;;;;6291347;22;20288;-86
2023/09/05 16:56:05;;;;;;;10.50;10.20;;;32.20;99.90;;;;;;6293178;22;20194;-86
2023/09/05 17:01:29;;;;;;;;;;;;;;;;;;;;;
2023/09/05 17:04:35;;;;;;;10.70;10.40;;;31.20;99.90;;;;;;6291868;22;20224;-86
2023/09/05 17:07:20;;;;;;;10.27;9.98;;;30.80;99.90;;;;;;6292128;22;20186;-85
2023/09/05 17:09:48;;;;;;;10.07;9.77;;;30.20;99.90;;;;;;6292093;22;20197;-87
2023/09/05 17:12:19;;;;;;;10.30;10.00;;;29.30;99.90;;;;;;6291482;22;21063;-85
2023/09/05 17:14:51;;;;;;;10.40;10.10;;;28.70;99.90;;;;;;6291478;22;20197;-87
2023/09/05 17:17:25;;;;;;;10.43;10.13;;;28.00;99.90;;;;;;6291140;22;20192;-87
2023/09/05 17:20:16;;;;;;;10.50;10.20;;;27.50;99.90;;;;;;6291753;22;20200;-88
2023/09/05 17:22:47;;;;;;;10.25;9.95;;;27.20;99.90;;;;;;6294900;22;20220;-89
2023/09/05 17:25:16;;;;;;;10.13;9.82;;;26.90;99.90;;;;;;6291725;22;20212;-88
2023/09/05 17:27:44;;;;;;;10.00;9.70;;;26.80;99.90;;;;;;6296855;22;20261;-87
2023/09/05 17:30:14;;;;;;;10.20;9.90;;;26.60;99.90;;;;;;6301172;22;20201;-84
2023/09/05 17:32:41;;;;;;;10.13;9.82;;;26.40;99.90;;;;;;6299779;22;20220;-85
2023/09/05 17:35:10;;;;;;;10.23;9.93;;;26.10;99.90;;;;;;6295087;22;20200;-88
2023/09/05 17:37:40;;;;;;;10.30;10.00;;;25.80;99.90;;;;;;6294267;22;20196;-86
2023/09/05 17:40:09;;;;;;;10.20;9.90;;;25.60;99.90;;;;;;6294617;22;20273;-87
2023/09/05 17:45:20;;;;;;;10.05;9.75;;;25.30;99.90;;;;;;6301546;22;20173;-87
2023/09/05 17:47:49;;;;;;;10.02;9.73;;;25.20;99.90;;;;;;6300143;22;20232;-85
2023/09/05 17:50:17;;;;;;;9.80;9.50;;;25.10;99.90;;;;;;6298147;22;20197;-84
2023/09/05 17:52:47;;;;;;;9.73;9.43;;;24.90;99.90;;;;;;6301926;22;20193;-86
2023/09/05 17:55:16;;;;;;;10.27;9.98;;;24.80;99.90;;;;;;6305026;22;20206;-86
2023/09/05 17:57:45;;;;;;;10.05;9.75;;;24.60;99.90;;;;;;6301349;22;20205;-86
2023/09/05 18:00:15;;;;;;;9.80;9.50;;;24.40;99.90;;;;;;6301463;22;20209;-86
2023/09/05 18:05:32;;;;;;;10.10;9.80;;;24.10;99.90;;;;;;6306858;22;20197;-86
2023/09/05 18:08:00;;;;;;;10.20;9.90;;;24.00;99.90;;;;;;6300185;22;20220;-85
2023/09/05 18:10:40;;;;;;;10.20;9.90;;;23.90;99.90;;;;;;6300313;22;20221;-83
2023/09/05 18:13:09;;;;;;;9.80;9.50;;;23.90;99.90;;;;;;6295215;22;20205;-85
2023/09/05 18:15:37;;;;;;;9.80;9.50;;;23.80;99.90;;;;;;6294700;22;20221;-85
2023/09/05 18:18:07;;;;;;;9.43;9.13;;;23.80;99.90;;;;;;6292213;22;20197;-84
2023/09/05 18:20:35;;;;;;;8.93;8.73;;;23.70;99.90;;;;;;6292187;22;20225;-84
2023/09/05 18:23:02;;;;;;;9.55;9.25;;;23.60;99.90;;;;;;6293108;22;20202;-84
2023/09/05 18:25:32;;;;;;;8.95;8.73;;;23.50;99.90;;;;;;6297228;22;20193;-85